Time;durP1;ratioP1;P1;durP2;ratioP2;P2;SDS_P1;SDS_P2;PMS_P1;PMS_P2;Temp;Humidity;BMP_temperature;BMP_pressure;BME280_temperature;BME280_humidity;BME280_pressure;Samples;Min_cycle;Max_cycle;Signal;HPM_P1;HPM_P2
2022/11/19 00:01:16;;;;;;;17.77;11.30;;;6.40;99.90;;;;;;5089427;28;20031;-61
2022/11/19 00:03:42;;;;;;;18.77;11.73;;;6.30;99.90;;;;;;5090048;28;20032;-62
2022/11/19 00:06:11;;;;;;;18.75;12.80;;;6.30;99.90;;;;;;5094339;28;20032;-62
2022/11/19 00:08:37;;;;;;;17.50;11.30;;;6.30;99.90;;;;;;5093688;28;20078;-62
2022/11/19 00:11:06;;;;;;;18.35;12.00;;;6.20;99.90;;;;;;5089531;28;20039;-62
2022/11/19 00:13:31;;;;;;;19.70;12.90;;;6.20;99.90;;;;;;5088724;28;20529;-61
2022/11/19 00:16:01;;;;;;;15.63;11.27;;;6.20;99.90;;;;;;5089835;28;20036;-61
2022/11/19 00:18:27;;;;;;;19.50;12.45;;;6.20;99.90;;;;;;5070825;28;20034;-61
2022/11/19 00:20:55;;;;;;;18.17;12.90;;;6.20;99.90;;;;;;5092033;28;20028;-62
2022/11/19 00:23:21;;;;;;;18.42;13.27;;;6.10;99.90;;;;;;5088964;28;20024;-61
2022/11/19 00:25:46;;;;;;;16.85;12.38;;;6.10;99.90;;;;;;5089408;28;20020;-62
2022/11/19 00:28:12;;;;;;;19.40;13.05;;;6.10;99.90;;;;;;5091457;28;20533;-62
2022/11/19 00:30:37;;;;;;;20.27;13.15;;;6.10;99.90;;;;;;5089497;28;20135;-61
2022/11/19 00:33:03;;;;;;;20.55;11.27;;;6.10;99.90;;;;;;5088704;28;20489;-61
2022/11/19 00:35:28;;;;;;;15.32;10.82;;;6.00;99.90;;;;;;5091858;28;20066;-62
2022/11/19 00:37:54;;;;;;;18.13;11.13;;;6.00;99.90;;;;;;5088942;28;20024;-62
2022/11/19 00:40:19;;;;;;;18.83;11.40;;;6.00;99.90;;;;;;5090560;28;20119;-61
2022/11/19 00:43:45;;;;;;;16.00;10.68;;;6.00;99.90;;;;;;5091705;28;20028;-61
2022/11/19 00:45:30;;;;;;;15.02;11.05;;;6.00;99.90;;;;;;5088537;28;20024;-62
2022/11/19 00:47:56;;;;;;;20.50;12.70;;;5.90;99.90;;;;;;5088886;28;20050;-62
2022/11/19 00:50:21;;;;;;;16.45;11.10;;;6.00;99.90;;;;;;5112904;27;20031;-62
2022/11/19 00:52:47;;;;;;;15.43;9.57;;;5.90;99.90;;;;;;5091544;28;20027;-62
2022/11/19 00:55:12;;;;;;;19.77;12.45;;;5.90;99.90;;;;;;5070350;28;20131;-61
2022/11/19 00:57:38;;;;;;;15.15;11.00;;;5.90;99.90;;;;;;5112905;28;20503;-62
2022/11/19 01:00:04;;;;;;;18.65;11.55;;;5.90;99.90;;;;;;5088610;28;20536;-62
2022/11/19 01:02:29;;;;;;;16.73;11.57;;;5.80;99.90;;;;;;5072980;28;20024;-61
2022/11/19 01:04:55;;;;;;;18.88;11.77;;;5.80;99.90;;;;;;5095796;28;20148;-62
2022/11/19 01:07:20;;;;;;;17.08;12.18;;;5.70;99.90;;;;;;5092943;28;20028;-62
2022/11/19 01:09:46;;;;;;;16.88;11.50;;;5.70;99.90;;;;;;5092974;28;20030;-62
2022/11/19 01:12:11;;;;;;;16.65;12.25;;;5.70;99.90;;;;;;5092524;28;20047;-62
2022/11/19 01:14:37;;;;;;;20.58;13.48;;;5.70;99.90;;;;;;5076984;28;20388;-61
2022/11/19 01:17:02;;;;;;;17.23;12.00;;;5.70;99.90;;;;;;5092539;28;20035;-62
2022/11/19 01:19:28;;;;;;;16.90;11.57;;;5.60;99.90;;;;;;5095266;28;20027;-62
2022/11/19 01:21:53;;;;;;;17.10;12.85;;;5.60;99.90;;;;;;5092538;28;20052;-61
2022/11/19 01:24:19;;;;;;;18.65;13.07;;;5.60;99.90;;;;;;5092500;28;20480;-62
2022/11/19 01:26:44;;;;;;;17.95;13.20;;;5.60;99.90;;;;;;5092182;28;20456;-62
2022/11/19 01:29:10;;;;;;;19.10;13.48;;;5.60;99.90;;;;;;5092089;28;20024;-62
2022/11/19 01:31:36;;;;;;;19.00;11.77;;;5.50;99.90;;;;;;5091891;28;20456;-62
2022/11/19 01:34:02;;;;;;;19.67;14.32;;;5.50;99.90;;;;;;5092286;28;20133;-62
2022/11/19 01:36:28;;;;;;;19.17;13.05;;;5.50;99.90;;;;;;5092192;28;20055;-62
2022/11/19 01:38:55;;;;;;;18.10;12.60;;;5.50;99.90;;;;;;5057268;28;20055;-62
2022/11/19 01:41:26;;;;;;;18.45;13.40;;;5.50;99.90;;;;;;5094023;28;20121;-62
2022/11/19 01:43:53;;;;;;;19.58;12.82;;;5.40;99.90;;;;;;5073684;28;20032;-62
2022/11/19 01:46:23;;;;;;;16.20;12.35;;;5.40;99.90;;;;;;5091741;27;20027;-62
2022/11/19 01:49:12;;;;;;;20.75;13.27;;;5.40;99.90;;;;;;5091916;28;20034;-62
2022/11/19 01:51:55;;;;;;;18.70;12.98;;;5.40;99.90;;;;;;5094841;28;20385;-61
2022/11/19 01:54:28;;;;;;;21.08;13.60;;;5.40;99.90;;;;;;5092101;28;20024;-61
2022/11/19 01:56:57;;;;;;;22.88;14.45;;;5.40;99.90;;;;;;5107027;27;20023;-62
2022/11/19 01:59:25;;;;;;;18.50;13.57;;;5.30;99.90;;;;;;5123187;27;20022;-61
2022/11/19 02:01:50;;;;;;;21.35;14.27;;;5.30;99.90;;;;;;5098304;27;20484;-62
2022/11/19 02:04:17;;;;;;;20.92;14.13;;;5.30;99.90;;;;;;5118483;27;20027;-61
2022/11/19 02:06:44;;;;;;;19.98;14.05;;;5.30;99.90;;;;;;5091592;28;20506;-62
2022/11/19 02:09:09;;;;;;;20.25;14.32;;;5.20;99.90;;;;;;5091926;28;20388;-61
2022/11/19 02:12:14;;;;;;;23.70;15.15;;;5.20;99.90;;;;;;5091590;28;20502;-62
2022/11/19 02:15:21;;;;;;;22.77;15.13;;;5.20;99.90;;;;;;5095045;28;20075;-61
2022/11/19 02:18:14;;;;;;;22.85;15.15;;;5.10;99.90;;;;;;5047203;28;20793;-62
2022/11/19 02:20:55;;;;;;;23.30;16.15;;;5.10;99.90;;;;;;5091526;28;20032;-62
2022/11/19 02:23:45;;;;;;;24.67;15.82;;;5.00;99.90;;;;;;5091141;28;20096;-62
2022/11/19 02:26:22;;;;;;;23.20;15.80;;;5.00;99.90;;;;;;5091025;28;20020;-62
2022/11/19 02:28:54;;;;;;;23.55;15.60;;;5.00;99.90;;;;;;5091248;28;20024;-61
2022/11/19 02:31:24;;;;;;;25.25;16.77;;;5.00;99.90;;;;;;5096399;28;20422;-61
2022/11/19 02:33:50;;;;;;;;;;;5.00;99.90;;;;;;5096722;27;20067;-61
2022/11/19 02:36:37;;;;;;;22.48;16.00;;;4.90;99.90;;;;;;5121799;27;19946;-62
2022/11/19 02:39:26;;;;;;;25.13;17.15;;;4.90;99.90;;;;;;5100772;27;20020;-61
2022/11/19 02:42:06;;;;;;;24.08;16.55;;;4.90;99.90;;;;;;5082861;28;20090;-62
2022/11/19 02:44:59;;;;;;;22.63;15.95;;;4.90;99.90;;;;;;5091058;28;20047;-62
2022/11/19 02:47:33;;;;;;;21.30;16.48;;;4.90;99.90;;;;;;5091188;28;20081;-61
2022/11/19 02:50:07;;;;;;;24.25;16.70;;;4.90;99.90;;;;;;5093913;28;20020;-61
2022/11/19 02:52:34;;;;;;;23.38;16.50;;;4.80;99.90;;;;;;5073886;28;20381;-61
2022/11/19 02:55:00;;;;;;;25.33;17.15;;;4.90;99.90;;;;;;5091310;28;20038;-61
2022/11/19 02:57:25;;;;;;;27.90;18.70;;;4.90;99.90;;;;;;5093562;28;20106;-61
2022/11/19 03:05:38;;;;;;;30.52;20.15;;;4.80;99.90;;;;;;5093440;28;20393;-61
2022/11/19 03:08:03;;;;;;;27.17;19.30;;;4.80;99.90;;;;;;5093972;27;20019;-61
2022/11/19 03:10:57;;;;;;;26.80;18.67;;;4.80;99.90;;;;;;5093390;28;20422;-62
2022/11/19 03:19:26;;;;;;;27.83;20.08;;;4.60;99.90;;;;;;5090566;28;20077;-61
2022/11/19 03:21:58;;;;;;;27.80;19.25;;;4.60;99.90;;;;;;5090366;28;20491;-61
2022/11/19 03:24:31;;;;;;;28.40;19.48;;;4.60;99.90;;;;;;5090353;28;20435;-62
2022/11/19 03:27:07;;;;;;;26.58;19.60;;;4.60;99.90;;;;;;5071687;27;20024;-62
2022/11/19 03:29:37;;;;;;;31.25;21.13;;;4.60;99.90;;;;;;5090091;28;20066;-61
2022/11/19 03:32:08;;;;;;;28.85;20.83;;;4.50;99.90;;;;;;5090022;28;20048;-62
2022/11/19 03:34:37;;;;;;;28.85;21.13;;;4.50;99.90;;;;;;5089888;28;20028;-62
2022/11/19 03:37:05;;;;;;;27.48;20.08;;;4.50;99.90;;;;;;5090130;28;20028;-61
2022/11/19 03:39:35;;;;;;;29.02;21.25;;;4.50;99.90;;;;;;5090085;28;20051;-61
2022/11/19 03:42:04;;;;;;;31.40;22.00;;;4.50;99.90;;;;;;5094282;28;20035;-61
2022/11/19 03:44:38;;;;;;;29.92;20.65;;;4.50;99.90;;;;;;5090005;28;20039;-61
2022/11/19 03:47:15;;;;;;;28.63;20.45;;;4.40;99.90;;;;;;5082164;28;20024;-61
2022/11/19 03:49:45;;;;;;;28.88;20.70;;;4.40;99.90;;;;;;5090177;28;20099;-62
2022/11/19 03:52:14;;;;;;;31.33;22.05;;;4.40;99.90;;;;;;5092406;28;20023;-62
2022/11/19 03:54:40;;;;;;;33.30;22.37;;;4.40;99.90;;;;;;5091037;28;20116;-62
2022/11/19 03:57:08;;;;;;;28.33;20.00;;;4.30;99.90;;;;;;5091176;28;20039;-61
2022/11/19 03:59:34;;;;;;;31.73;22.98;;;4.30;99.90;;;;;;5089525;28;20024;-62
2022/11/19 04:02:05;;;;;;;30.80;21.98;;;4.40;99.90;;;;;;5091118;28;20028;-62
2022/11/19 04:04:36;;;;;;;29.65;21.65;;;4.40;99.90;;;;;;5089941;28;20020;-61
2022/11/19 04:07:07;;;;;;;32.63;22.13;;;4.30;99.90;;;;;;5071279;28;20015;-62
2022/11/19 04:09:33;;;;;;;32.45;22.35;;;4.30;99.90;;;;;;5089536;28;20031;-62
2022/11/19 04:11:59;;;;;;;32.42;22.33;;;4.30;99.90;;;;;;5089417;28;20407;-62
2022/11/19 04:14:25;;;;;;;30.52;21.77;;;4.20;99.90;;;;;;5089206;28;20034;-62
2022/11/19 04:16:51;;;;;;;29.67;21.38;;;4.20;99.90;;;;;;5070922;28;20024;-62
2022/11/19 04:19:17;;;;;;;31.77;21.58;;;4.20;99.90;;;;;;5091856;28;20027;-61
2022/11/19 04:21:42;;;;;;;30.35;22.35;;;4.20;99.90;;;;;;5089392;28;20061;-61
2022/11/19 04:24:08;;;;;;;30.73;21.67;;;4.20;99.90;;;;;;5070640;28;20496;-62
2022/11/19 04:26:34;;;;;;;31.95;23.58;;;4.20;99.90;;;;;;5076343;28;20016;-61
2022/11/19 04:28:59;;;;;;;31.58;22.30;;;4.10;99.90;;;;;;5113205;27;20032;-61
2022/11/19 04:31:25;;;;;;;33.67;23.08;;;4.10;99.90;;;;;;5093910;28;20040;-61
2022/11/19 04:33:50;;;;;;;30.95;22.30;;;4.20;99.90;;;;;;5089456;28;20024;-62
2022/11/19 04:36:16;;;;;;;34.42;21.77;;;4.10;99.90;;;;;;5089152;28;20031;-61
2022/11/19 04:38:41;;;;;;;33.40;23.40;;;4.10;99.90;;;;;;5087924;28;20034;-62
2022/11/19 04:41:07;;;;;;;34.67;23.40;;;4.10;99.90;;;;;;5088678;28;20023;-62
2022/11/19 04:43:32;;;;;;;33.33;23.15;;;4.10;99.90;;;;;;5113922;27;20028;-62
2022/11/19 04:45:58;;;;;;;32.67;21.73;;;4.00;99.90;;;;;;5089976;28;20055;-61
2022/11/19 04:48:23;;;;;;;32.47;22.80;;;4.00;99.90;;;;;;5090374;28;20512;-61
2022/11/19 04:50:49;;;;;;;32.88;23.20;;;4.00;99.90;;;;;;5070661;28;20485;-61
2022/11/19 04:53:14;;;;;;;35.95;24.02;;;4.00;99.90;;;;;;5091646;28;20016;-62
2022/11/19 04:55:40;;;;;;;31.45;22.60;;;4.00;99.90;;;;;;5091567;28;20081;-61
2022/11/19 04:58:06;;;;;;;36.53;25.55;;;4.00;99.90;;;;;;5088949;28;20030;-61
2022/11/19 05:00:31;;;;;;;33.22;23.38;;;4.00;99.90;;;;;;5091633;28;20022;-62
2022/11/19 05:02:57;;;;;;;33.75;23.65;;;3.90;99.90;;;;;;5088453;28;20530;-61
2022/11/19 05:05:22;;;;;;;32.28;22.52;;;3.90;99.90;;;;;;5089032;28;20028;-61
2022/11/19 05:07:48;;;;;;;33.58;23.38;;;3.90;99.90;;;;;;5091253;28;20069;-61
2022/11/19 05:10:13;;;;;;;35.53;24.75;;;3.90;99.90;;;;;;5088544;28;20020;-61
2022/11/19 05:12:39;;;;;;;36.75;24.90;;;3.90;99.90;;;;;;5088274;28;20392;-61
2022/11/19 05:15:05;;;;;;;35.03;24.25;;;3.80;99.90;;;;;;5088759;28;20036;-61
2022/11/19 05:17:30;;;;;;;36.78;25.70;;;3.80;99.90;;;;;;5088348;28;20024;-61
2022/11/19 05:19:58;;;;;;;35.60;25.75;;;3.80;99.90;;;;;;5088606;28;20093;-61
2022/11/19 05:22:23;;;;;;;37.92;26.02;;;3.80;99.90;;;;;;5088266;28;20054;-61
2022/11/19 05:24:49;;;;;;;38.55;24.67;;;3.80;99.90;;;;;;5088422;28;20032;-62
2022/11/19 05:27:14;;;;;;;39.53;26.50;;;3.70;99.90;;;;;;5090999;28;20049;-61
2022/11/19 05:29:40;;;;;;;37.17;25.20;;;3.70;99.90;;;;;;5089947;28;20058;-61
2022/11/19 05:32:05;;;;;;;37.80;24.35;;;3.70;99.90;;;;;;5075676;28;20543;-62
2022/11/19 05:34:31;;;;;;;37.60;24.88;;;3.70;99.90;;;;;;5088054;28;20034;-61
2022/11/19 05:36:56;;;;;;;37.38;24.85;;;3.70;99.90;;;;;;5088444;28;20361;-61
2022/11/19 05:39:22;;;;;;;34.92;22.90;;;3.70;99.90;;;;;;5088381;28;20035;-61
2022/11/19 05:41:47;;;;;;;40.55;26.83;;;3.70;99.90;;;;;;5089107;28;20028;-61
2022/11/19 05:44:13;;;;;;;39.65;26.17;;;3.80;99.90;;;;;;5091546;28;20067;-61
2022/11/19 05:46:38;;;;;;;42.97;28.27;;;3.70;99.90;;;;;;5088189;28;20019;-61
2022/11/19 05:49:04;;;;;;;38.50;26.10;;;3.70;99.90;;;;;;5092573;28;20028;-61
2022/11/19 05:51:29;;;;;;;41.45;27.67;;;3.70;99.90;;;;;;5091937;28;20078;-61
2022/11/19 05:53:55;;;;;;;38.35;25.95;;;3.60;99.90;;;;;;5092445;28;20032;-61
2022/11/19 05:56:20;;;;;;;41.28;27.27;;;3.60;99.90;;;;;;5096017;28;20070;-61
2022/11/19 05:58:46;;;;;;;38.70;27.05;;;3.60;99.90;;;;;;5075200;28;20504;-61
2022/11/19 06:01:13;;;;;;;41.88;26.80;;;3.60;99.90;;;;;;5094538;28;20028;-61
2022/11/19 06:03:39;;;;;;;40.45;25.45;;;3.50;99.90;;;;;;5094874;28;20109;-61
2022/11/19 06:06:05;;;;;;;41.35;28.02;;;3.50;99.90;;;;;;5094372;28;20039;-61
2022/11/19 06:08:31;;;;;;;40.28;26.55;;;3.50;99.90;;;;;;5091953;28;20401;-61
2022/11/19 06:10:56;;;;;;;44.45;28.48;;;3.50;99.90;;;;;;5094112;28;20032;-61
2022/11/19 06:13:22;;;;;;;41.92;27.90;;;3.50;99.90;;;;;;5091809;28;20093;-61
2022/11/19 06:15:47;;;;;;;41.03;26.70;;;3.50;99.90;;;;;;5115747;27;20024;-62
2022/11/19 06:18:13;;;;;;;37.90;26.98;;;3.40;99.90;;;;;;5073002;28;20495;-61
2022/11/19 06:20:38;;;;;;;39.85;26.08;;;3.40;99.90;;;;;;5099878;27;20498;-61
2022/11/19 06:23:04;;;;;;;37.30;25.38;;;3.40;99.90;;;;;;5108740;27;20024;-61
2022/11/19 06:25:29;;;;;;;39.80;26.50;;;3.40;99.90;;;;;;5093169;28;20032;-61
2022/11/19 06:27:55;;;;;;;41.47;27.38;;;3.50;99.90;;;;;;5091167;28;20362;-61
2022/11/19 06:30:20;;;;;;;41.63;27.20;;;3.40;99.90;;;;;;5091048;28;20082;-60
2022/11/19 06:32:46;;;;;;;38.58;27.08;;;3.40;99.90;;;;;;5075951;28;20020;-61
2022/11/19 06:35:12;;;;;;;37.55;25.20;;;3.40;99.90;;;;;;5091351;28;20111;-61
2022/11/19 06:37:37;;;;;;;38.65;25.70;;;3.40;99.90;;;;;;5093990;28;20020;-61
2022/11/19 06:40:03;;;;;;;39.70;26.83;;;3.40;99.90;;;;;;5093713;28;20038;-61
2022/11/19 06:42:35;;;;;;;37.55;25.20;;;3.40;99.90;;;;;;5077257;27;20031;-61
2022/11/19 06:45:01;;;;;;;40.67;27.17;;;3.40;99.90;;;;;;5076431;28;20547;-61
2022/11/19 06:47:30;;;;;;;43.00;27.88;;;3.40;99.90;;;;;;5091062;28;20035;-61
2022/11/19 06:49:55;;;;;;;43.10;27.10;;;3.40;99.90;;;;;;5093928;28;20742;-61
2022/11/19 06:52:21;;;;;;;41.67;28.40;;;3.40;99.90;;;;;;5093421;28;20020;-61
2022/11/19 06:54:46;;;;;;;40.25;26.25;;;3.40;99.90;;;;;;5096133;28;20035;-61
2022/11/19 06:57:12;;;;;;;41.05;27.70;;;3.30;99.90;;;;;;5078599;28;20041;-61
2022/11/19 06:59:37;;;;;;;39.17;26.10;;;3.30;99.90;;;;;;5109138;28;20493;-61
2022/11/19 07:02:03;;;;;;;38.53;25.92;;;3.30;99.90;;;;;;5075065;28;20094;-61
2022/11/19 07:04:29;;;;;;;39.40;24.73;;;3.30;99.90;;;;;;5097425;28;20114;-61
2022/11/19 07:06:54;;;;;;;39.95;26.10;;;3.30;99.90;;;;;;5112433;28;20126;-61
2022/11/19 07:09:20;;;;;;;38.25;25.98;;;3.30;99.90;;;;;;5109865;28;20028;-61
2022/11/19 07:11:46;;;;;;;39.67;25.45;;;3.30;99.90;;;;;;5094000;28;20103;-61
2022/11/19 07:14:11;;;;;;;36.72;24.45;;;3.30;99.90;;;;;;5110056;28;20491;-61
2022/11/19 07:16:37;;;;;;;36.50;24.98;;;3.30;99.90;;;;;;5090982;28;20066;-62
2022/11/19 07:19:05;;;;;;;38.30;24.90;;;3.20;99.90;;;;;;5095164;28;20043;-61
2022/11/19 07:21:31;;;;;;;36.45;24.67;;;3.20;99.90;;;;;;5093401;27;20036;-61
2022/11/19 07:23:58;;;;;;;40.00;25.63;;;3.20;99.90;;;;;;5098549;28;20020;-61
2022/11/19 07:26:24;;;;;;;36.38;24.58;;;3.20;99.90;;;;;;5113590;28;20472;-61
2022/11/19 07:28:50;;;;;;;36.83;23.25;;;3.20;99.90;;;;;;5093797;28;20148;-61
2022/11/19 07:31:15;;;;;;;39.55;25.38;;;3.20;99.90;;;;;;5112984;28;20136;-61
2022/11/19 07:33:41;;;;;;;36.95;24.48;;;3.20;99.90;;;;;;5093218;28;20028;-61
2022/11/19 07:36:08;;;;;;;37.60;24.20;;;3.20;99.90;;;;;;5094626;28;20035;-61
2022/11/19 07:38:35;;;;;;;37.85;24.77;;;3.20;99.90;;;;;;5075676;28;20028;-61
2022/11/19 07:41:00;;;;;;;36.38;25.15;;;3.10;99.90;;;;;;5105889;28;20156;-61
2022/11/19 07:43:26;;;;;;;40.88;25.45;;;3.10;99.90;;;;;;5109607;28;20095;-61
2022/11/19 07:45:52;;;;;;;38.67;24.38;;;3.10;99.90;;;;;;5096594;28;20468;-61
2022/11/19 07:48:17;;;;;;;37.05;24.38;;;3.10;99.90;;;;;;5077661;28;20016;-61
2022/11/19 07:50:49;;;;;;;35.50;23.33;;;3.10;99.90;;;;;;5093480;28;20020;-61
2022/11/19 07:53:14;;;;;;;33.90;23.63;;;3.10;99.90;;;;;;5097355;28;20043;-61
2022/11/19 07:55:41;;;;;;;31.88;22.33;;;3.00;99.90;;;;;;5095659;28;20063;-61
2022/11/19 07:58:06;;;;;;;38.78;24.42;;;3.00;99.90;;;;;;5095439;28;20023;-61
2022/11/19 08:00:32;;;;;;;38.13;24.85;;;3.00;99.90;;;;;;5075475;28;20032;-61
2022/11/19 08:02:58;;;;;;;38.45;25.40;;;3.00;99.90;;;;;;5097510;28;20074;-61
2022/11/19 08:05:23;;;;;;;35.67;23.95;;;3.00;99.90;;;;;;5104565;28;20392;-61
2022/11/19 08:07:49;;;;;;;36.67;24.50;;;3.00;99.90;;;;;;5082158;28;20123;-61
2022/11/19 08:10:14;;;;;;;32.63;23.05;;;3.00;99.90;;;;;;5110787;28;20023;-61
2022/11/19 08:12:40;;;;;;;38.50;24.15;;;3.00;99.90;;;;;;5097993;28;20102;-61
2022/11/19 08:15:06;;;;;;;34.35;23.17;;;3.00;99.90;;;;;;5103902;28;20537;-61
2022/11/19 08:20:16;;;;;;;36.55;22.67;;;3.00;99.90;;;;;;5099698;28;20521;-61
2022/11/19 08:22:42;;;;;;;37.88;23.70;;;3.00;99.90;;;;;;5104078;28;20412;-61
2022/11/19 08:25:07;;;;;;;35.97;24.05;;;3.00;99.90;;;;;;5109593;28;20107;-61
2022/11/19 08:27:33;;;;;;;35.17;23.42;;;3.10;99.90;;;;;;5109997;28;20423;-61
2022/11/19 08:29:59;;;;;;;35.17;22.58;;;3.10;99.90;;;;;;5077554;28;20012;-61
2022/11/19 08:32:24;;;;;;;34.67;22.58;;;3.10;99.90;;;;;;5093224;28;20050;-62
2022/11/19 08:34:50;;;;;;;36.95;22.55;;;3.10;99.90;;;;;;5093126;28;20020;-61
2022/11/19 08:37:15;;;;;;;36.15;23.90;;;3.20;99.90;;;;;;5093585;28;20047;-61
2022/11/19 08:39:41;;;;;;;32.28;21.73;;;3.20;99.90;;;;;;5105035;28;20476;-61
2022/11/19 08:44:53;;;;;;;34.60;22.42;;;3.20;99.90;;;;;;5107582;28;20039;-62
2022/11/19 08:47:19;;;;;;;30.55;21.20;;;3.10;99.90;;;;;;5098667;28;20012;-61
2022/11/19 08:49:45;;;;;;;34.10;21.48;;;3.20;99.90;;;;;;5103225;27;20039;-61
2022/11/19 08:52:10;;;;;;;32.28;21.92;;;3.20;99.90;;;;;;5064588;28;20397;-61
2022/11/19 08:54:36;;;;;;;32.38;22.20;;;3.10;99.90;;;;;;5096426;28;20035;-61
2022/11/19 08:57:01;;;;;;;31.92;21.67;;;3.10;99.90;;;;;;5097103;28;20055;-61
2022/11/19 08:59:27;;;;;;;35.25;22.20;;;3.10;99.90;;;;;;5097292;28;20051;-61
2022/11/19 09:01:52;;;;;;;31.17;21.15;;;3.10;99.90;;;;;;5101468;28;20503;-62
2022/11/19 09:04:18;;;;;;;32.67;20.25;;;3.00;99.90;;;;;;5097052;28;20447;-61
2022/11/19 09:06:43;;;;;;;35.50;21.45;;;3.10;99.90;;;;;;5099252;28;20473;-61
2022/11/19 09:09:09;;;;;;;32.58;21.10;;;3.00;99.90;;;;;;5098821;28;20024;-61
2022/11/19 09:11:35;;;;;;;30.40;20.33;;;3.00;99.90;;;;;;5105361;28;20048;-61
2022/11/19 09:14:00;;;;;;;34.28;21.70;;;2.90;99.90;;;;;;5092079;28;20056;-62
2022/11/19 09:16:26;;;;;;;32.25;21.45;;;2.90;99.90;;;;;;5074264;28;20026;-61
2022/11/19 09:18:52;;;;;;;29.20;19.85;;;2.80;99.90;;;;;;5092315;28;20024;-62
2022/11/19 09:21:18;;;;;;;31.83;21.83;;;2.80;99.90;;;;;;5100053;28;20487;-61
2022/11/19 09:23:43;;;;;;;31.77;19.95;;;2.80;99.90;;;;;;5103827;28;20046;-61
2022/11/19 09:26:16;;;;;;;31.38;20.45;;;2.80;99.90;;;;;;5096058;28;20103;-61
2022/11/19 09:28:42;;;;;;;30.60;19.90;;;2.80;99.90;;;;;;5096878;28;20016;-61
2022/11/19 09:31:16;;;;;;;29.70;19.65;;;2.80;99.90;;;;;;5095578;28;20378;-61
2022/11/19 09:33:44;;;;;;;30.08;20.42;;;2.80;99.90;;;;;;5096386;28;20504;-61
2022/11/19 09:36:11;;;;;;;29.42;20.35;;;2.80;99.90;;;;;;5096279;28;20034;-61
2022/11/19 09:38:38;;;;;;;30.25;19.67;;;2.80;99.90;;;;;;5079548;28;20028;-61
2022/11/19 09:41:16;;;;;;;30.23;20.00;;;2.80;99.90;;;;;;5097129;28;20028;-61
2022/11/19 09:43:51;;;;;;;26.85;18.60;;;2.90;99.90;;;;;;5109191;28;20111;-61
2022/11/19 09:46:35;;;;;;;28.65;18.42;;;2.90;99.90;;;;;;5095893;28;20035;-61
2022/11/19 09:49:07;;;;;;;26.00;18.48;;;2.90;99.90;;;;;;5096110;28;20024;-61
2022/11/19 09:51:34;;;;;;;27.10;19.17;;;2.90;99.90;;;;;;5095804;28;20527;-61
2022/11/19 09:54:04;;;;;;;27.17;18.60;;;2.80;99.90;;;;;;5095906;28;20028;-61
2022/11/19 09:56:40;;;;;;;;;;;2.80;99.90;;;;;;5077779;28;20024;-61
2022/11/19 09:59:37;;;;;;;26.58;17.80;;;2.80;99.90;;;;;;5095991;28;19904;-61
2022/11/19 10:02:19;;;;;;;26.55;17.70;;;2.80;99.90;;;;;;5096421;28;20051;-61
2022/11/19 10:04:46;;;;;;;30.05;18.13;;;2.90;99.90;;;;;;5095340;28;20419;-61
2022/11/19 10:07:48;;;;;;;24.20;15.80;;;2.80;99.90;;;;;;5095784;28;20028;-61
2022/11/19 10:10:41;;;;;;;28.23;17.90;;;2.90;99.90;;;;;;5095536;28;20077;-62
2022/11/19 10:13:36;;;;;;;23.98;16.90;;;2.90;99.90;;;;;;5095370;28;20103;-61
2022/11/19 10:16:14;;;;;;;28.88;18.08;;;2.90;99.90;;;;;;5095669;28;20032;-61
2022/11/19 10:18:53;;;;;;;27.27;17.50;;;2.90;99.70;;;;;;5078383;28;20027;-61
2022/11/19 10:21:46;;;;;;;23.10;14.93;;;2.80;99.60;;;;;;5095713;28;20035;-61
2022/11/19 10:24:21;;;;;;;25.30;17.13;;;2.90;99.70;;;;;;5095963;28;20028;-61
2022/11/19 10:26:56;;;;;;;24.38;16.60;;;2.90;99.70;;;;;;5095648;28;20523;-61
2022/11/19 10:29:24;;;;;;;24.48;16.17;;;3.00;99.70;;;;;;5095421;28;20024;-61
2022/11/19 10:31:50;;;;;;;24.13;16.45;;;3.00;99.50;;;;;;5096178;28;20069;-61
2022/11/19 10:34:22;;;;;;;20.50;14.52;;;3.00;99.30;;;;;;5095748;28;20020;-61
2022/11/19 10:36:55;;;;;;;22.15;15.32;;;3.00;99.30;;;;;;5095337;28;20121;-61
2022/11/19 10:39:24;;;;;;;22.38;15.60;;;3.00;99.30;;;;;;5095974;28;20028;-61
2022/11/19 10:42:07;;;;;;;21.27;15.60;;;3.10;99.30;;;;;;5098039;28;20051;-61
2022/11/19 10:44:42;;;;;;;21.90;15.60;;;3.10;99.10;;;;;;5102752;28;20057;-61
2022/11/19 10:47:19;;;;;;;20.15;14.45;;;3.10;99.10;;;;;;5061230;28;20012;-61
2022/11/19 10:49:49;;;;;;;22.10;14.45;;;3.20;99.00;;;;;;5095246;28;20051;-61
2022/11/19 10:52:38;;;;;;;20.63;14.13;;;3.30;98.90;;;;;;5095131;28;20020;-61
2022/11/19 10:55:32;;;;;;;21.27;13.63;;;3.40;98.80;;;;;;5095028;28;20044;-62
2022/11/19 10:58:14;;;;;;;20.42;14.93;;;3.50;98.70;;;;;;5095714;28;20474;-61
2022/11/19 11:00:41;;;;;;;23.25;14.90;;;3.50;98.50;;;;;;5094587;28;20028;-61
2022/11/19 11:03:26;;;;;;;20.45;14.48;;;3.60;98.40;;;;;;5095184;28;20115;-61
2022/11/19 11:06:04;;;;;;;21.88;15.13;;;3.60;98.10;;;;;;5094994;28;20385;-61
2022/11/19 11:08:30;;;;;;;18.48;13.68;;;3.70;98.10;;;;;;5094548;28;20081;-62
2022/11/19 11:10:56;;;;;;;21.95;14.52;;;3.70;98.00;;;;;;5094220;28;20016;-61
2022/11/19 11:16:17;;;;;;;23.38;14.38;;;3.90;97.70;;;;;;5094907;28;20042;-61
2022/11/19 11:18:44;;;;;;;17.65;12.00;;;4.00;97.30;;;;;;5094325;28;20548;-61
2022/11/19 11:21:28;;;;;;;19.20;13.32;;;4.10;97.20;;;;;;5094116;28;20024;-61
2022/11/19 11:23:55;;;;;;;16.35;11.50;;;4.20;96.60;;;;;;5093862;28;20032;-61
2022/11/19 11:26:24;;;;;;;18.52;13.07;;;4.30;96.40;;;;;;5094532;28;20043;-61
2022/11/19 11:28:54;;;;;;;18.83;13.52;;;4.40;96.10;;;;;;5093836;28;20499;-61
2022/11/19 11:31:37;;;;;;;17.35;12.88;;;4.50;95.90;;;;;;5094344;28;20093;-61
2022/11/19 11:34:05;;;;;;;13.68;10.30;;;4.60;96.10;;;;;;5094263;28;20111;-61
2022/11/19 11:36:34;;;;;;;17.88;12.55;;;4.70;95.90;;;;;;5093796;28;20077;-62
2022/11/19 11:39:01;;;;;;;18.10;12.05;;;4.80;95.70;;;;;;5094525;28;20425;-61
2022/11/19 11:41:39;;;;;;;14.75;11.52;;;4.90;95.40;;;;;;5093704;28;20026;-61
2022/11/19 11:44:14;;;;;;;16.63;11.93;;;5.00;94.90;;;;;;5105692;28;20089;-61
2022/11/19 11:46:47;;;;;;;14.98;11.27;;;5.10;94.50;;;;;;5093557;28;20111;-61
2022/11/19 11:49:31;;;;;;;16.58;12.82;;;5.20;94.40;;;;;;5094058;28;20092;-61
2022/11/19 11:52:16;;;;;;;15.65;11.68;;;5.30;94.00;;;;;;5093825;28;20044;-61
2022/11/19 11:55:02;;;;;;;14.02;10.95;;;5.30;93.50;;;;;;5093306;28;20087;-61
2022/11/19 11:57:31;;;;;;;16.98;10.63;;;5.40;93.50;;;;;;5094006;28;20039;-61
2022/11/19 11:59:57;;;;;;;14.10;10.30;;;5.90;93.40;;;;;;5093448;28;20012;-61
2022/11/19 12:02:31;;;;;;;14.88;11.40;;;6.20;92.50;;;;;;5094156;28;20030;-61
2022/11/19 12:05:03;;;;;;;15.73;10.55;;;6.30;91.60;;;;;;5092823;28;20016;-61
2022/11/19 12:08:05;;;;;;;12.80;9.95;;;6.30;91.40;;;;;;5093400;28;20492;-61
2022/11/19 12:10:48;;;;;;;13.55;11.10;;;6.90;91.30;;;;;;5104996;28;20126;-62
2022/11/19 12:13:16;;;;;;;12.52;9.90;;;8.40;89.20;;;;;;5093104;28;20012;-62
2022/11/19 12:16:05;;;;;;;11.93;9.60;;;9.50;85.40;;;;;;5109510;27;20024;-62
2022/11/19 12:18:33;;;;;;;11.33;9.00;;;10.60;81.00;;;;;;5101858;28;20016;-62
2022/11/19 12:22:00;;;;;;;11.85;9.48;;;10.70;76.50;;;;;;5092739;28;20092;-61
2022/11/19 12:24:42;;;;;;;12.15;9.85;;;10.10;75.10;;;;;;5031722;28;20025;-62
2022/11/19 12:27:46;;;;;;;11.88;9.10;;;9.20;73.80;;;;;;5087965;28;20447;-62
2022/11/19 12:30:17;;;;;;;13.50;9.82;;;8.70;75.30;;;;;;5099580;28;20024;-62
2022/11/19 12:33:05;;;;;;;11.60;9.75;;;8.30;76.20;;;;;;5092775;28;20111;-62
2022/11/19 12:36:09;;;;;;;13.63;10.23;;;8.10;76.90;;;;;;5124804;27;20507;-62
2022/11/19 12:38:48;;;;;;;11.55;9.00;;;7.80;76.40;;;;;;5111593;28;20050;-61
2022/11/19 12:41:28;;;;;;;12.15;9.30;;;7.70;77.40;;;;;;5111763;28;20027;-61
2022/11/19 12:44:00;;;;;;;;;;;7.90;77.70;;;;;;5106789;28;20028;-62
2022/11/19 12:47:10;;;;;;;10.45;9.15;;;7.80;76.20;;;;;;5106374;28;19904;-61
2022/11/19 12:49:35;;;;;;;11.85;8.98;;;7.70;76.50;;;;;;5012904;28;20356;-62
2022/11/19 12:52:22;;;;;;;10.15;8.35;;;7.60;75.80;;;;;;5095482;28;20051;-62
2022/11/19 12:55:08;;;;;;;11.48;9.43;;;7.60;76.80;;;;;;5095390;28;20364;-61
2022/11/19 12:57:58;;;;;;;11.15;9.18;;;7.50;76.60;;;;;;5092218;28;20484;-61
2022/11/19 13:00:26;;;;;;;11.55;9.75;;;7.50;76.20;;;;;;5095819;28;20385;-62
2022/11/19 13:02:52;;;;;;;10.88;8.18;;;7.40;76.00;;;;;;5091981;28;20024;-62
2022/11/19 13:05:21;;;;;;;10.85;9.23;;;7.60;76.60;;;;;;5101725;28;20512;-62
2022/11/19 13:07:53;;;;;;;13.00;9.98;;;7.70;75.60;;;;;;5104462;28;20059;-62
2022/11/19 13:10:33;;;;;;;10.63;8.75;;;7.70;74.80;;;;;;5092017;28;20032;-62
2022/11/19 13:13:00;;;;;;;12.32;8.90;;;7.80;75.30;;;;;;5096672;28;20089;-62
2022/11/19 13:15:37;;;;;;;10.98;8.57;;;7.90;75.20;;;;;;5100155;28;20028;-62